Time;durP1;ratioP1;P1;durP2;ratioP2;P2;SDS_P1;SDS_P2;PMS_P1;PMS_P2;Temp;Humidity;BMP_temperature;BMP_pressure;BME280_temperature;BME280_humidity;BME280_pressure;Samples;Min_cycle;Max_cycle;Signal;HPM_P1;HPM_P2
2021/08/30 00:00:38;;;;;;;4.43;3.30;;;14.60;88.00;;;13.12;95.75;95746.16;4978894;28;20074;-69
2021/08/30 00:03:04;;;;;;;3.83;3.20;;;14.60;87.90;;;13.12;95.60;95748.00;4980755;28;20106;-69
2021/08/30 00:05:30;;;;;;;5.55;3.10;;;14.50;87.90;;;13.12;95.75;95743.53;4956400;28;20038;-69
2021/08/30 00:07:56;;;;;;;4.95;3.35;;;14.60;87.90;;;13.13;95.72;95737.25;4961425;28;20113;-69
2021/08/30 00:10:22;;;;;;;4.10;3.40;;;14.60;87.80;;;13.13;96.23;95736.44;4970726;28;20061;-69
2021/08/30 00:12:48;;;;;;;3.92;3.50;;;14.50;87.90;;;13.11;95.48;95734.00;4942202;28;20066;-69
2021/08/30 00:15:14;;;;;;;4.43;3.63;;;14.60;87.90;;;13.12;95.83;95730.31;4974649;28;20133;-69
2021/08/30 00:17:40;;;;;;;4.25;3.85;;;14.50;88.00;;;13.13;95.85;95737.25;4966767;28;20043;-70
2021/08/30 00:20:08;;;;;;;4.13;3.47;;;14.50;88.20;;;13.11;96.21;95734.00;4955949;28;20134;-70
2021/08/30 00:22:34;;;;;;;5.68;3.22;;;14.50;88.10;;;13.12;96.74;95732.97;4955513;28;20048;-70
2021/08/30 00:25:01;;;;;;;4.57;3.58;;;14.60;87.90;;;13.11;96.23;95733.19;4990368;28;20054;-69
2021/08/30 00:27:28;;;;;;;4.03;3.42;;;14.50;87.80;;;13.09;95.57;95732.59;4975152;28;20065;-69
2021/08/30 00:29:54;;;;;;;4.00;3.15;;;14.50;88.00;;;13.10;96.88;95732.38;4970850;28;20038;-69
2021/08/30 00:32:19;;;;;;;4.15;3.47;;;14.50;88.00;;;13.12;96.13;95724.22;4981928;28;20417;-69
2021/08/30 00:34:45;;;;;;;3.97;3.20;;;14.50;88.10;;;13.11;96.17;95728.72;5003772;28;20118;-69
2021/08/30 00:37:11;;;;;;;3.88;3.00;;;14.60;88.10;;;13.13;96.01;95726.69;4998609;28;20062;-69
2021/08/30 00:39:37;;;;;;;4.18;3.30;;;14.60;87.90;;;13.12;95.69;95727.69;4984651;28;20039;-69
2021/08/30 00:42:03;;;;;;;3.78;3.38;;;14.60;88.00;;;13.11;96.19;95722.63;4940599;28;20409;-69
2021/08/30 00:44:28;;;;;;;4.78;3.20;;;14.60;88.00;;;13.12;96.96;95725.03;4953246;28;20506;-70
2021/08/30 00:46:54;;;;;;;5.28;3.20;;;14.60;87.80;;;13.13;95.66;95715.31;4959162;28;20031;-69
2021/08/30 00:49:20;;;;;;;4.20;3.45;;;14.60;87.90;;;13.10;95.75;95716.53;4978778;28;20104;-69
2021/08/30 00:51:46;;;;;;;3.50;3.00;;;14.60;88.20;;;13.10;95.88;95711.25;4990479;28;20034;-69
2021/08/30 00:54:13;;;;;;;5.03;3.15;;;14.60;88.10;;;13.08;96.17;95718.56;4939460;28;20038;-69
2021/08/30 00:56:39;;;;;;;7.22;3.03;;;14.40;88.40;;;13.08;96.60;95715.13;4971300;28;20030;-69
2021/08/30 00:59:06;;;;;;;4.72;3.58;;;14.50;88.30;;;13.09;96.21;95714.09;4939512;28;20045;-69
2021/08/30 01:01:32;;;;;;;3.85;3.15;;;14.50;88.30;;;13.09;96.47;95716.75;4971645;28;20095;-70
2021/08/30 01:03:58;;;;;;;4.15;3.35;;;14.60;88.00;;;13.08;96.51;95720.41;4969513;28;20470;-69
2021/08/30 01:06:50;;;;;;;3.72;2.83;;;14.50;88.10;;;13.09;97.06;95720.19;4983301;28;20466;-69
2021/08/30 01:09:39;;;;;;;4.45;3.20;;;14.50;88.40;;;13.09;96.88;95714.09;4953815;28;20136;-69
2021/08/30 01:12:12;;;;;;;4.30;3.25;;;14.50;88.40;;;13.08;96.48;95712.47;4988982;28;20498;-70
2021/08/30 01:15:01;;;;;;;3.60;2.90;;;14.60;88.30;;;13.11;97.22;95717.34;4965043;28;20038;-69
2021/08/30 01:17:27;;;;;;;4.00;2.92;;;14.60;88.10;;;13.08;97.32;95713.28;4989525;28;20049;-70
2021/08/30 01:20:09;;;;;;;3.53;3.00;;;14.60;88.00;;;13.06;96.44;95701.34;4955209;28;20067;-70
2021/08/30 01:22:37;;;;;;;3.28;2.97;;;14.50;88.30;;;13.06;96.81;95704.78;4972691;28;20044;-69
2021/08/30 01:25:04;;;;;;;2.95;2.65;;;14.50;88.30;;;13.06;97.23;95703.97;4963687;28;20259;-69
2021/08/30 01:27:30;;;;;;;4.10;2.75;;;14.50;88.10;;;13.04;96.16;95706.03;4989584;28;20038;-69
2021/08/30 01:30:07;;;;;;;3.10;2.47;;;14.40;88.30;;;13.04;96.39;95698.09;4975312;28;20333;-69
2021/08/30 01:32:38;;;;;;;5.07;2.25;;;14.40;88.50;;;13.02;97.41;95697.50;4962034;28;20049;-69
2021/08/30 01:35:09;;;;;;;2.67;2.08;;;14.40;88.60;;;13.03;96.57;95699.13;4990595;28;20113;-70
2021/08/30 01:37:38;;;;;;;2.38;1.98;;;14.40;88.50;;;13.05;96.43;95702.34;4978009;28;20035;-69
2021/08/30 01:40:05;;;;;;;2.65;1.85;;;14.50;88.30;;;13.05;96.93;95703.16;4981392;28;20037;-70
2021/08/30 01:42:32;;;;;;;3.28;1.88;;;14.60;88.10;;;13.06;97.40;95698.69;4957085;28;20041;-70
2021/08/30 01:44:58;;;;;;;2.65;2.00;;;14.50;87.90;;;13.06;96.92;95701.34;4989793;28;20089;-70
2021/08/30 01:47:23;;;;;;;2.72;1.70;;;14.50;88.00;;;13.06;96.78;95698.69;4974150;28;20043;-69
2021/08/30 01:50:00;;;;;;;3.15;2.38;;;14.60;88.10;;;13.06;96.83;95698.69;4938579;28;20521;-70
2021/08/30 01:52:28;;;;;;;3.13;2.50;;;14.50;88.10;;;13.04;96.79;95693.63;4970074;28;20042;-69
2021/08/30 01:54:54;;;;;;;3.60;2.65;;;14.50;87.90;;;13.04;96.39;95695.47;4989216;28;20037;-69
2021/08/30 01:57:22;;;;;;;3.92;2.92;;;14.50;88.10;;;13.04;96.61;95698.09;4975725;28;20042;-69
2021/08/30 02:02:32;;;;;;;3.35;2.65;;;14.40;88.20;;;13.02;96.22;95692.22;4978119;28;20037;-70
2021/08/30 02:04:58;;;;;;;9.82;7.57;;;14.50;88.30;;;13.04;96.63;95684.91;4986127;28;20034;-70
2021/08/30 02:07:24;;;;;;;4.95;4.38;;;14.60;88.10;;;13.05;97.08;95686.50;4972373;28;20492;-69
2021/08/30 02:09:50;;;;;;;4.18;3.20;;;14.50;88.10;;;13.05;97.16;95689.16;4957334;28;20030;-70
2021/08/30 02:12:15;;;;;;;4.20;3.58;;;14.50;88.10;;;13.03;97.47;95686.72;4987889;28;20046;-69
2021/08/30 02:14:41;;;;;;;4.93;3.10;;;14.50;88.20;;;13.03;97.81;95688.56;4941573;28;20145;-70
2021/08/30 02:17:08;;;;;;;6.40;4.68;;;14.40;88.00;;;13.02;96.82;95682.47;4998374;28;20113;-69
2021/08/30 02:19:51;;;;;;;3.58;3.28;;;14.50;88.20;;;13.04;97.35;95687.53;4953255;28;20062;-70
2021/08/30 02:22:29;;;;;;;3.10;2.80;;;14.40;88.00;;;13.02;97.04;95676.38;4969149;28;20070;-71
2021/08/30 02:24:59;;;;;;;3.88;3.20;;;14.50;88.30;;;13.01;97.50;95677.41;4986298;28;20042;-69
2021/08/30 02:27:41;;;;;;;;;;;14.40;88.30;;;12.99;97.32;95676.81;4958163;28;20490;-69
2021/08/30 02:30:24;;;;;;;3.63;3.20;;;14.40;88.10;;;12.98;96.71;95676.00;4978510;28;19917;-70
2021/08/30 02:32:53;;;;;;;3.10;2.67;;;14.40;88.30;;;12.96;96.93;95672.78;4985076;28;20114;-70
2021/08/30 02:35:22;;;;;;;3.58;3.08;;;14.40;88.50;;;12.94;97.08;95674.00;4989463;28;20042;-69
2021/08/30 02:37:50;;;;;;;3.75;3.17;;;14.30;88.40;;;12.92;97.12;95676.06;4972981;28;20125;-69
2021/08/30 02:40:16;;;;;;;4.00;3.13;;;14.30;88.60;;;12.90;97.34;95663.09;4955120;28;20030;-69
2021/08/30 02:42:41;;;;;;;3.70;2.90;;;14.30;88.60;;;12.89;97.03;95670.16;4951913;28;20454;-69
2021/08/30 02:45:08;;;;;;;4.15;2.75;;;14.20;88.70;;;12.88;97.49;95665.91;4965529;28;20097;-70
2021/08/30 02:47:34;;;;;;;3.58;2.80;;;14.20;88.80;;;12.87;97.48;95663.47;4959051;28;20038;-70
2021/08/30 02:50:01;;;;;;;2.80;2.42;;;14.20;88.90;;;12.86;97.92;95665.31;4939763;28;20778;-69
2021/08/30 02:52:27;;;;;;;3.35;2.60;;;14.20;88.60;;;12.86;97.90;95665.31;4973050;28;20506;-69
2021/08/30 02:54:53;;;;;;;2.63;2.08;;;14.20;88.90;;;12.84;97.44;95669.19;4988300;28;20145;-70
2021/08/30 02:57:19;;;;;;;3.65;2.10;;;14.20;89.00;;;12.82;97.01;95661.50;4973409;28;20117;-69
2021/08/30 02:59:44;;;;;;;4.47;2.50;;;14.10;89.00;;;12.83;97.67;95657.81;4968015;28;20038;-69
2021/08/30 03:02:10;;;;;;;4.53;3.63;;;14.20;89.00;;;12.85;97.75;95661.06;4968475;28;20035;-69
2021/08/30 03:04:36;;;;;;;3.55;2.83;;;14.30;88.50;;;12.84;97.34;95658.63;4952025;28;20509;-69
2021/08/30 03:07:02;;;;;;;9.75;8.07;;;14.30;88.70;;;12.85;97.17;95639.94;4960542;28;20023;-69
2021/08/30 03:09:28;;;;;;;2.67;2.40;;;14.30;88.90;;;12.83;98.24;95647.28;4955899;28;20038;-70
2021/08/30 03:11:54;;;;;;;3.08;2.28;;;14.20;88.70;;;12.79;98.04;95651.34;4972040;28;20081;-69
2021/08/30 03:14:24;;;;;;;2.55;2.10;;;14.10;88.70;;;12.75;98.22;95650.19;4964630;28;20039;-70
2021/08/30 03:16:52;;;;;;;4.10;2.88;;;14.10;89.10;;;12.78;98.56;95644.47;4987217;28;20035;-69
2021/08/30 03:19:17;;;;;;;4.88;4.07;;;14.20;89.00;;;12.78;98.09;95654.22;4975616;28;20042;-69
2021/08/30 03:21:43;;;;;;;6.80;5.28;;;14.10;89.00;;;12.78;97.70;95647.09;4969979;28;20070;-71
2021/08/30 03:24:09;;;;;;;5.15;2.58;;;14.20;89.10;;;12.80;97.89;95638.97;4960267;28;20062;-70
2021/08/30 03:26:35;;;;;;;2.95;2.35;;;14.20;88.80;;;12.79;98.10;95640.00;4986275;28;20061;-70
2021/08/30 03:29:01;;;;;;;3.10;2.30;;;14.20;88.70;;;12.78;97.66;95649.75;4961133;28;20063;-69
2021/08/30 03:31:27;;;;;;;3.47;2.55;;;14.20;89.20;;;12.75;97.56;95630.91;4956525;28;20035;-69
2021/08/30 03:33:54;;;;;;;4.45;2.95;;;14.10;89.20;;;12.74;97.81;95637.19;4952460;28;20031;-69
2021/08/30 03:36:20;;;;;;;3.85;2.55;;;14.10;89.00;;;12.76;98.22;95635.97;4992338;28;20524;-70
2021/08/30 03:38:46;;;;;;;5.03;2.88;;;14.10;89.20;;;12.76;97.93;95635.97;4971562;28;20133;-70
2021/08/30 03:41:12;;;;;;;4.80;3.22;;;14.10;88.60;;;12.75;98.46;95625.63;4980072;28;20110;-69
2021/08/30 03:43:38;;;;;;;5.45;3.58;;;14.10;89.00;;;12.75;97.91;95628.25;4967396;28;21448;-69
2021/08/30 03:46:04;;;;;;;4.95;3.80;;;14.10;89.10;;;12.75;98.84;95629.06;4960347;28;20018;-69
2021/08/30 03:48:29;;;;;;;5.78;3.92;;;14.20;88.90;;;12.77;98.32;95632.28;4945345;28;20512;-69
2021/08/30 03:50:55;;;;;;;8.25;4.07;;;14.20;88.60;;;12.75;98.59;95634.34;4948129;28;20448;-69
2021/08/30 03:53:21;;;;;;;5.78;3.63;;;14.10;88.90;;;12.74;98.59;95638.00;4956161;28;20457;-69
2021/08/30 03:55:47;;;;;;;5.57;3.40;;;14.10;89.00;;;12.72;98.42;95631.31;4955923;28;20045;-69
2021/08/30 03:58:16;;;;;;;4.88;3.88;;;14.10;88.90;;;12.70;97.86;95630.72;4952532;28;20026;-69
2021/08/30 04:00:42;;;;;;;4.78;3.97;;;14.00;89.10;;;12.69;97.90;95627.28;4975171;28;20027;-69
2021/08/30 04:03:08;;;;;;;6.32;4.15;;;14.10;89.10;;;12.70;98.46;95634.19;4954227;28;20114;-69
2021/08/30 04:05:34;;;;;;;6.57;4.50;;;14.10;89.00;;;12.70;97.84;95636.00;4953211;28;20038;-70
2021/08/30 04:08:00;;;;;;;6.65;4.70;;;14.10;88.70;;;12.69;98.46;95619.38;4955321;28;20137;-69
2021/08/30 04:10:27;;;;;;;5.57;4.07;;;14.10;88.90;;;12.67;97.90;95629.31;4955867;28;20126;-70
2021/08/30 04:12:55;;;;;;;4.80;4.03;;;14.10;88.70;;;12.65;98.51;95623.44;4958085;28;20035;-69
2021/08/30 04:15:21;;;;;;;4.30;3.65;;;14.00;89.00;;;12.64;98.07;95618.38;4985769;28;20038;-69
2021/08/30 04:17:47;;;;;;;6.45;3.55;;;14.00;89.00;;;12.65;98.54;95623.44;4975005;28;20042;-70
2021/08/30 04:20:13;;;;;;;3.67;3.03;;;14.10;89.00;;;12.65;98.12;95618.16;4966732;28;20122;-69
2021/08/30 04:22:39;;;;;;;4.25;3.03;;;14.10;88.80;;;12.63;98.49;95617.56;4962893;28;20051;-68
2021/08/30 04:25:05;;;;;;;3.90;3.10;;;14.00;88.90;;;12.61;98.55;95616.97;4941263;28;20042;-70
2021/08/30 04:27:31;;;;;;;3.63;2.83;;;14.00;89.10;;;12.63;98.52;95614.91;4991416;28;20117;-69
2021/08/30 04:29:56;;;;;;;5.10;3.10;;;14.10;89.00;;;12.62;98.69;95613.31;4965619;28;20173;-69
2021/08/30 04:32:22;;;;;;;5.00;2.70;;;14.10;89.10;;;12.63;98.90;95622.84;4971242;28;20258;-69
2021/08/30 04:34:48;;;;;;;5.85;2.90;;;14.10;88.90;;;12.62;98.79;95610.66;4975786;28;20494;-69
2021/08/30 04:37:14;;;;;;;3.42;2.63;;;14.10;89.00;;;12.63;98.25;95609.66;4955685;28;20114;-70
2021/08/30 04:39:39;;;;;;;3.95;2.53;;;14.10;89.20;;;12.61;98.41;95605.59;4960284;28;20162;-68
2021/08/30 04:42:05;;;;;;;4.75;2.60;;;13.90;89.00;;;12.60;98.35;95602.16;4980484;28;20510;-68
2021/08/30 04:44:32;;;;;;;3.80;2.63;;;14.00;89.40;;;12.60;98.40;95607.44;4967710;28;20050;-68
2021/08/30 04:47:01;;;;;;;3.78;2.55;;;13.90;89.40;;;12.55;98.43;95596.72;4990081;28;20041;-70
2021/08/30 04:49:27;;;;;;;3.22;2.63;;;13.90;89.60;;;12.53;98.68;95588.22;4953389;28;20049;-70
2021/08/30 04:51:53;;;;;;;2.97;2.28;;;13.90;89.60;;;12.52;99.38;95592.69;4960545;28;20039;-71
2021/08/30 04:54:22;;;;;;;2.53;2.10;;;13.90;89.70;;;12.51;99.25;95582.34;4971510;28;20059;-70
2021/08/30 04:56:47;;;;;;;3.13;2.15;;;13.90;89.40;;;12.48;99.52;95580.13;4980235;28;20026;-70
2021/08/30 04:59:14;;;;;;;3.05;2.38;;;13.80;89.60;;;12.45;98.97;95581.38;4971691;28;20364;-72
2021/08/30 05:01:40;;;;;;;2.75;2.05;;;13.70;90.00;;;12.41;99.93;95564.34;4972666;28;20120;-71
2021/08/30 05:04:05;;;;;;;2.72;2.15;;;13.70;89.90;;;12.40;99.32;95568.00;4971583;28;20498;-70
2021/08/30 05:06:31;;;;;;;3.00;2.13;;;13.70;90.10;;;12.37;99.14;95555.25;4981072;28;20114;-74
2021/08/30 05:08:57;;;;;;;3.58;2.45;;;13.70;90.10;;;12.37;100.00;95552.59;4972871;28;20121;-74
2021/08/30 05:11:23;;;;;;;3.05;2.63;;;13.70;90.20;;;12.37;99.94;95551.78;4972841;28;20129;-74
2021/08/30 05:13:48;;;;;;;3.05;2.38;;;13.70;90.30;;;12.36;99.86;95550.19;4989284;28;20031;-75
2021/08/30 05:16:14;;;;;;;3.53;2.50;;;13.70;90.20;;;12.37;100.00;95563.16;4974531;28;20034;-74
2021/08/30 05:18:40;;;;;;;3.78;2.40;;;13.70;90.40;;;12.39;99.97;95561.09;4970763;28;20129;-74
2021/08/30 05:21:07;;;;;;;5.05;2.72;;;13.80;90.20;;;12.41;100.00;95547.69;4986621;28;20143;-74
2021/08/30 05:23:33;;;;;;;3.33;2.55;;;13.80;90.00;;;12.41;100.00;95547.69;4970358;28;20029;-74
2021/08/30 05:25:59;;;;;;;2.83;2.22;;;13.80;90.00;;;12.43;100.00;95550.94;4958092;28;20122;-74
2021/08/30 05:28:25;;;;;;;4.35;2.30;;;13.80;90.00;;;12.44;100.00;95542.00;4957859;28;20455;-74
2021/08/30 05:30:51;;;;;;;3.42;2.60;;;13.80;89.90;;;12.45;100.00;95538.38;4973438;28;20085;-74
2021/08/30 05:33:16;;;;;;;3.58;2.53;;;13.90;89.90;;;12.48;100.00;95548.47;4980806;28;20179;-74
2021/08/30 05:35:42;;;;;;;4.03;2.50;;;13.90;89.90;;;12.50;100.00;95541.16;4973137;28;20042;-75
2021/08/30 05:38:08;;;;;;;3.95;2.30;;;13.80;89.90;;;12.48;100.00;95537.94;4946224;28;20039;-74
2021/08/30 05:40:34;;;;;;;2.22;2.00;;;13.80;89.90;;;12.45;100.00;95541.00;4956446;28;20117;-74
2021/08/30 05:43:00;;;;;;;2.47;2.03;;;13.70;90.10;;;12.48;100.00;95532.66;4973615;28;20149;-74
2021/08/30 05:45:26;;;;;;;4.68;2.83;;;13.90;89.90;;;12.48;100.00;95537.94;4970481;28;20491;-75
2021/08/30 05:47:52;;;;;;;4.50;3.35;;;13.80;90.10;;;12.46;100.00;95532.06;4941274;28;20058;-72
2021/08/30 05:50:18;;;;;;;2.35;1.98;;;13.80;90.20;;;12.48;100.00;95530.03;4958864;28;20399;-72
2021/08/30 05:52:44;;;;;;;3.25;2.53;;;13.80;90.10;;;12.48;100.00;95527.38;4957322;28;20505;-72
2021/08/30 05:55:10;;;;;;;3.38;2.70;;;13.80;89.90;;;12.45;100.00;95533.91;4973504;28;20139;-73
2021/08/30 05:57:35;;;;;;;3.13;1.90;;;13.80;90.20;;;12.45;100.00;95530.47;4965517;28;20051;-70
2021/08/30 06:00:01;;;;;;;2.05;1.80;;;13.80;90.30;;;12.46;99.98;95532.06;4959569;28;20058;-71
2021/08/30 06:02:27;;;;;;;1.50;1.40;;;13.80;90.40;;;12.49;100.00;95523.72;4977676;28;20043;-71
2021/08/30 06:04:53;;;;;;;2.05;1.38;;;13.90;90.00;;;12.48;100.00;95527.38;4970028;28;20419;-71
2021/08/30 06:07:18;;;;;;;1.60;1.30;;;13.80;90.10;;;12.49;100.00;95523.72;4988769;28;20125;-69
2021/08/30 06:09:44;;;;;;;2.80;1.60;;;13.90;90.00;;;12.50;100.00;95534.06;4958594;28;20142;-72
2021/08/30 06:12:10;;;;;;;2.28;1.85;;;13.90;89.80;;;12.56;100.00;95530.56;4970485;28;20066;-71
2021/08/30 06:14:36;;;;;;;2.13;1.60;;;14.00;89.90;;;12.62;100.00;95549.97;4988010;28;20045;-69
2021/08/30 06:17:01;;;;;;;2.10;1.42;;;14.10;89.60;;;12.68;100.00;95559.69;4955773;28;20445;-71
2021/08/30 06:19:27;;;;;;;3.67;2.10;;;14.20;89.40;;;12.75;100.00;95559.63;4941635;28;20038;-69
2021/08/30 06:21:53;;;;;;;2.15;1.50;;;14.30;89.30;;;12.82;100.00;95563.84;4956242;28;20486;-69
2021/08/30 06:24:19;;;;;;;1.33;1.08;;;14.40;88.60;;;12.87;100.00;95564.00;4966727;28;20129;-69
2021/08/30 06:26:44;;;;;;;1.20;0.70;;;14.30;88.60;;;12.91;99.30;95567.03;4968849;28;20041;-71
2021/08/30 06:29:10;;;;;;;1.08;0.98;;;14.30;87.70;;;12.93;99.03;95577.38;4972010;28;20065;-70
2021/08/30 06:31:36;;;;;;;0.80;0.68;;;14.30;87.40;;;12.95;98.27;95580.59;4985788;28;20129;-73
2021/08/30 06:34:03;;;;;;;0.40;0.32;;;14.40;87.60;;;12.97;97.10;95581.19;4959091;28;20064;-65
2021/08/30 06:36:28;;;;;;;0.55;0.45;;;14.40;86.80;;;12.96;96.85;95583.03;4969642;28;20236;-65
2021/08/30 06:38:54;;;;;;;0.30;0.22;;;14.40;86.70;;;12.96;96.78;95588.28;4963888;28;20038;-76
2021/08/30 06:41:20;;;;;;;0.40;0.30;;;14.40;86.50;;;13.01;97.01;95606.13;4987671;28;20042;-71
2021/08/30 06:43:46;;;;;;;2.30;0.30;;;14.60;86.40;;;13.08;97.20;95605.03;4970356;28;20047;-71
2021/08/30 06:46:11;;;;;;;0.40;0.30;;;14.80;86.40;;;13.19;97.43;95611.50;4970113;28;20146;-72
2021/08/30 06:48:37;;;;;;;1.35;1.00;;;15.00;85.40;;;13.28;96.96;95612.81;4986094;28;20125;-71
2021/08/30 06:51:04;;;;;;;0.70;0.50;;;15.10;85.20;;;13.40;96.66;95620.84;4968781;28;20121;-71
2021/08/30 06:53:29;;;;;;;4.90;3.88;;;15.30;85.30;;;13.52;96.48;95619.09;4968765;28;20046;-71
2021/08/30 06:55:55;;;;;;;5.88;5.03;;;15.40;84.80;;;13.61;96.67;95616.97;4988113;28;20106;-71
2021/08/30 06:58:21;;;;;;;2.42;1.30;;;15.40;84.60;;;13.68;95.84;95628.28;4979610;28;20134;-71
2021/08/30 07:00:46;;;;;;;4.30;0.60;;;15.40;84.40;;;13.72;95.58;95629.47;4953466;28;20034;-71
2021/08/30 07:03:12;;;;;;;0.40;0.40;;;15.40;84.80;;;13.76;96.03;95630.63;4937032;28;20118;-72
2021/08/30 07:05:38;;;;;;;0.50;0.50;;;15.30;84.90;;;13.76;95.90;95631.44;4972440;28;20035;-71
2021/08/30 07:08:04;;;;;;;0.68;0.40;;;15.40;84.80;;;13.78;95.57;95636.50;4989415;28;20050;-72
2021/08/30 07:10:30;;;;;;;0.52;0.50;;;15.50;84.60;;;13.76;94.88;95634.06;4971984;28;20042;-71
2021/08/30 07:12:55;;;;;;;0.57;0.40;;;15.30;84.60;;;13.78;95.23;95644.44;4972409;28;20464;-70
2021/08/30 07:15:22;;;;;;;1.95;0.57;;;15.40;84.60;;;13.82;95.32;95647.47;4972374;28;20561;-70
2021/08/30 07:17:48;;;;;;;1.27;0.50;;;15.40;84.40;;;13.84;95.23;95645.41;4955671;28;20030;-70
2021/08/30 07:20:14;;;;;;;1.58;0.50;;;15.60;84.70;;;13.89;95.03;95648.19;4988847;28;20532;-70
2021/08/30 07:22:39;;;;;;;2.45;1.15;;;15.70;84.40;;;13.96;94.72;95636.50;4988903;28;20058;-70
2021/08/30 07:25:06;;;;;;;1.65;0.80;;;15.80;83.70;;;14.03;95.33;95642.53;4956007;28;20122;-70
2021/08/30 07:27:31;;;;;;;0.95;0.50;;;15.80;83.70;;;14.14;94.86;95642.81;4989036;28;20146;-70
2021/08/30 07:29:57;;;;;;;0.60;0.50;;;16.10;83.70;;;14.22;94.51;95650.44;4972576;28;20140;-70
2021/08/30 07:32:23;;;;;;;1.27;0.90;;;16.10;83.10;;;14.35;94.65;95650.28;4955528;28;20576;-71
2021/08/30 07:34:49;;;;;;;1.45;0.50;;;16.40;83.10;;;14.46;95.41;95654.03;4972697;28;20581;-71
2021/08/30 07:37:15;;;;;;;0.40;0.40;;;16.50;82.80;;;14.57;94.08;95654.09;4971894;28;20087;-71
2021/08/30 07:39:40;;;;;;;2.92;0.50;;;16.60;81.90;;;14.63;93.68;95653.19;4961126;28;20093;-70
2021/08/30 07:42:06;;;;;;;0.50;0.45;;;16.50;81.60;;;14.64;92.91;95665.38;4975028;28;20034;-70
2021/08/30 07:44:32;;;;;;;3.20;0.52;;;16.50;81.70;;;14.67;91.87;95664.94;4963254;28;20490;-71
2021/08/30 07:46:58;;;;;;;1.45;0.50;;;16.40;81.70;;;14.66;91.76;95663.31;4982814;28;20121;-70
2021/08/30 07:49:23;;;;;;;0.73;0.45;;;16.20;81.50;;;14.64;91.89;95664.56;4977232;28;20046;-71
2021/08/30 07:51:49;;;;;;;0.77;0.57;;;16.20;81.70;;;14.62;91.15;95664.81;4956130;28;20066;-67
2021/08/30 07:54:15;;;;;;;1.35;0.73;;;16.20;82.10;;;14.62;91.46;95661.34;4997670;28;20033;-69
2021/08/30 07:56:41;;;;;;;2.63;2.05;;;16.30;82.00;;;14.66;92.45;95673.91;4980094;28;20170;-68
2021/08/30 07:59:08;;;;;;;4.60;3.42;;;16.50;81.30;;;14.73;91.38;95678.31;4946861;28;20097;-67
2021/08/30 08:01:34;;;;;;;1.80;1.35;;;16.60;80.80;;;14.78;91.37;95681.09;4959018;28;20062;-69
2021/08/30 08:04:00;;;;;;;2.50;1.65;;;16.60;81.00;;;14.82;91.65;95683.06;4986835;28;20034;-69
2021/08/30 08:06:26;;;;;;;6.05;5.20;;;16.70;80.60;;;14.87;91.14;95685.84;4974922;28;20390;-68
2021/08/30 08:08:51;;;;;;;2.10;1.52;;;16.70;80.40;;;14.94;90.67;95691.06;4972603;28;20034;-69
2021/08/30 08:11:17;;;;;;;2.63;2.42;;;16.90;79.90;;;15.00;90.55;95684.84;4988164;28;20065;-68
2021/08/30 08:13:43;;;;;;;1.50;1.27;;;17.00;80.00;;;15.08;90.36;95689.81;4985150;28;20125;-71
2021/08/30 08:16:09;;;;;;;14.88;11.27;;;17.10;79.10;;;15.22;89.58;95704.50;4983336;28;20169;-72
2021/08/30 08:18:34;;;;;;;1.88;1.23;;;17.40;78.80;;;15.36;90.31;95698.97;4974869;28;20026;-72
2021/08/30 08:21:02;;;;;;;4.65;3.20;;;17.50;77.40;;;15.52;89.56;95703.59;4978145;28;20177;-70
2021/08/30 08:23:28;;;;;;;1.23;1.10;;;17.70;77.80;;;15.66;89.04;95713.00;4966828;28;20027;-71
2021/08/30 08:25:54;;;;;;;1.13;0.75;;;17.80;76.20;;;15.73;87.25;95710.22;4969709;28;20080;-71
2021/08/30 08:28:19;;;;;;;0.80;0.80;;;17.70;76.00;;;15.71;87.09;95707.78;4985840;28;20086;-72
2021/08/30 08:30:45;;;;;;;1.23;0.82;;;17.50;76.20;;;15.66;86.57;95710.34;4969650;28;20564;-71
2021/08/30 08:33:11;;;;;;;1.60;0.80;;;17.20;76.80;;;15.63;86.79;95708.16;4984429;28;20549;-70
2021/08/30 08:35:40;;;;;;;0.80;0.70;;;17.40;76.60;;;15.70;86.14;95710.69;4955647;28;20061;-71
2021/08/30 08:38:06;;;;;;;0.80;0.80;;;17.70;76.20;;;15.87;86.30;95712.41;4960220;28;20065;-71
2021/08/30 08:40:32;;;;;;;0.70;0.70;;;18.40;74.80;;;16.17;86.35;95706.16;4970760;28;20042;-71
2021/08/30 08:42:57;;;;;;;1.20;1.00;;;18.90;73.00;;;16.52;85.84;95711.38;4970444;28;20038;-71
2021/08/30 08:45:23;;;;;;;0.77;0.70;;;19.40;72.40;;;16.84;86.40;95717.88;4990520;28;20034;-71
2021/08/30 08:47:49;;;;;;;1.55;0.90;;;19.70;71.70;;;17.06;85.55;95718.03;4989584;28;20125;-71
2021/08/30 08:50:19;;;;;;;1.90;1.35;;;19.60;70.80;;;17.11;83.22;95726.06;4974390;28;20117;-72
2021/08/30 08:52:45;;;;;;;2.03;1.50;;;19.10;69.70;;;17.10;82.63;95721.81;4981614;28;20070;-72
2021/08/30 08:55:12;;;;;;;1.75;1.27;;;19.00;70.40;;;17.05;82.01;95732.34;4968444;28;20081;-71
2021/08/30 08:57:38;;;;;;;1.42;1.00;;;18.90;71.80;;;16.99;81.84;95729.84;4957860;28;20038;-71
2021/08/30 09:00:09;;;;;;;1.85;1.15;;;18.70;72.40;;;16.89;81.01;95730.44;4956746;28;20026;-71
2021/08/30 09:02:35;;;;;;;1.08;0.80;;;18.60;71.60;;;16.81;81.63;95733.50;4967133;28;20117;-72
2021/08/30 09:05:03;;;;;;;1.08;0.88;;;18.50;70.90;;;16.77;81.36;95737.66;4985193;28;20061;-70
2021/08/30 09:07:42;;;;;;;1.98;1.10;;;18.60;71.70;;;16.77;80.87;95740.31;4961301;28;20034;-70
2021/08/30 09:10:14;;;;;;;1.08;0.90;;;18.80;71.50;;;16.89;80.97;95735.75;4973382;28;20038;-70
2021/08/30 09:12:42;;;;;;;1.30;1.00;;;19.20;70.60;;;17.11;81.08;95734.06;4989489;28;20043;-70
2021/08/30 09:15:13;;;;;;;1.10;0.90;;;19.60;69.10;;;17.24;79.83;95737.47;4985188;28;20042;-70
2021/08/30 09:17:47;;;;;;;0.63;0.63;;;19.50;69.10;;;17.22;77.48;95742.22;4954024;28;20113;-70
2021/08/30 09:20:17;;;;;;;2.08;1.17;;;19.10;68.80;;;17.15;79.07;95753.78;4963636;28;20118;-66
2021/08/30 09:22:43;;;;;;;0.93;0.83;;;19.00;69.90;;;17.10;79.45;95748.38;4954797;28;20035;-66
2021/08/30 09:25:10;;;;;;;0.82;0.60;;;19.00;70.70;;;17.09;79.70;95752.09;4955432;28;20139;-68
2021/08/30 09:27:51;;;;;;;0.60;0.60;;;19.00;71.00;;;17.10;79.32;95756.34;4970214;28;20038;-67
2021/08/30 09:30:18;;;;;;;0.60;0.52;;;19.10;70.50;;;17.18;79.78;95751.69;4967444;28;20085;-66
2021/08/30 09:32:48;;;;;;;1.63;0.60;;;19.20;69.40;;;17.27;78.31;95748.44;4943544;28;20055;-73
2021/08/30 09:35:15;;;;;;;1.80;0.68;;;19.60;69.40;;;17.35;79.90;95753.34;4981256;28;20030;-71
2021/08/30 09:37:44;;;;;;;0.57;0.50;;;19.60;69.80;;;17.39;79.60;95749.16;4950175;28;20038;-72
2021/08/30 09:40:19;;;;;;;0.65;0.40;;;19.50;70.60;;;17.39;78.13;95751.81;4991993;28;20069;-69
2021/08/30 09:42:51;;;;;;;1.02;0.70;;;19.30;70.00;;;17.35;78.82;95749.88;4954186;28;20525;-70
2021/08/30 09:45:22;;;;;;;0.85;0.57;;;19.30;70.80;;;17.30;79.27;95752.44;4986529;28;20121;-74
2021/08/30 09:47:59;;;;;;;0.63;0.45;;;19.10;69.50;;;17.26;77.34;95756.63;4956293;28;20194;-75
2021/08/30 09:50:33;;;;;;;0.90;0.60;;;19.00;69.90;;;17.22;77.79;95755.50;4958972;28;20456;-75
2021/08/30 09:53:00;;;;;;;0.98;0.80;;;19.00;70.70;;;17.07;78.97;95762.16;4978211;28;20129;-69
2021/08/30 09:55:26;;;;;;;1.70;0.60;;;18.50;71.80;;;16.95;78.38;95766.69;4961981;28;20095;-68
2021/08/30 09:57:52;;;;;;;2.95;0.90;;;18.40;72.10;;;16.81;78.53;95776.81;4984855;28;20553;-69
2021/08/30 10:00:19;;;;;;;1.90;1.00;;;18.30;73.10;;;16.68;78.59;95774.41;4972858;28;20049;-70
2021/08/30 10:02:52;;;;;;;0.85;0.40;;;18.20;73.50;;;16.50;79.42;95785.94;4965110;28;20041;-74
2021/08/30 10:05:18;;;;;;;2.60;0.50;;;17.90;73.50;;;16.33;80.14;95784.25;4965583;28;20448;-75
2021/08/30 10:07:45;;;;;;;0.50;0.30;;;17.70;74.30;;;16.18;79.90;95784.72;4953978;28;20410;-76
2021/08/30 10:10:15;;;;;;;0.30;0.30;;;17.70;74.90;;;16.10;80.11;95782.44;4927494;28;20129;-75
2021/08/30 10:12:41;;;;;;;0.57;0.40;;;17.60;75.20;;;15.98;81.38;95776.28;4954301;28;20049;-75
2021/08/30 10:15:08;;;;;;;0.52;0.35;;;17.50;75.80;;;15.89;81.06;95773.19;4962358;28;20030;-74
2021/08/30 10:17:34;;;;;;;4.15;0.40;;;17.40;75.80;;;15.81;81.74;95771.66;4958281;28;20129;-75
2021/08/30 10:20:01;;;;;;;0.80;0.45;;;17.40;76.10;;;15.76;81.71;95768.91;4976481;28;20493;-77